NCAR-RAP Real-Time Weather Data

Output produced by METARs form (24 April 2018  16:07 UTC)
found at http://weather.rap.ucar.edu/surface/
 
KSYR 241554Z 17013G19KT 10SM FEW120 FEW150 SCT180 BKN250 19/M06 A3023 RMK AO2 SLP233 T01891056
KSYR 241454Z 17010G17KT 10SM FEW150 FEW180 BKN250 17/M03 A3026 RMK AO2 SLP243 T01721033 58012
KSYR 241354Z 18010G19KT 10SM FEW150 FEW180 SCT250 17/M03 A3028 RMK AO2 SLP250 T01671033
KSYR 241254Z 15010G16KT 10SM FEW150 FEW180 BKN250 14/00 A3029 RMK AO2 SLP254 T01440000
KSYR 241154Z 11006KT 10SM FEW180 SCT220 BKN250 12/02 A3029 RMK AO2 SLP255 T01170022 10139 20078 51011
KSYR 241054Z 10007KT 10SM FEW180 FEW220 BKN250 09/01 A3029 RMK AO2 SLP253 T00890011
KSYR 240954Z 10005KT 10SM FEW180 BKN250 08/00 A3027 RMK AO2 SLP249 T00780000
KSYR 240854Z 16009KT 10SM FEW200 BKN260 11/01 A3026 RMK AO2 SLP244 BKN V OVC T01110006 50001
KSYR 240754Z 15003KT 10SM FEW200 OVC250 11/M01 A3027 RMK AO2 SLP246 T01111006
KSYR 240654Z 16010KT 10SM FEW200 OVC260 13/01 A3025 RMK AO2 SLP242 T01280006
KSYR 240554Z 17010KT 10SM BKN260 13/01 A3026 RMK AO2 SLP243 T01330006 10178 20117 58004
KSYR 240454Z 17007KT 10SM SCT260 13/00 A3027 RMK AO2 SLP246 T01280000 402111017
KSYR 240354Z 15004KT 10SM FEW260 13/M03 A3027 RMK AO2 SLP246 T01281028
KSYR 240254Z 14004KT 10SM FEW250 12/M03 A3027 RMK AO2 SLP248 T01171028 51007
KSYR 240154Z 15005KT 10SM FEW250 15/M05 A3027 RMK AO2 SLP248 T01501050
KSYR 240054Z 13005KT 10SM FEW250 16/M05 A3026 RMK AO2 SLP244 T01611050
KSYR 232354Z 15006KT 10SM FEW250 18/M06 A3025 RMK AO2 SLP242 T01781061 10211 20178 56014
KSYR 232254Z VRB04KT 10SM FEW250 19/M06 A3026 RMK AO2 SLP246 T01941056
KSYR 232154Z 03007KT 10SM FEW250 20/M06 A3027 RMK AO2 SLP250 T02001061
KSYR 232054Z 01005KT 10SM FEW250 20/M07 A3029 RMK AO2 SLP256 T02001067 56024
KSYR 231954Z VRB04KT 10SM FEW250 20/M07 A3031 RMK AO2 SLP262 T02001067
KSYR 231854Z 04007KT 10SM FEW250 20/M04 A3033 RMK AO2 SLP270 T02001044
KSYR 231754Z 35005KT 10SM FEW250 19/M07 A3036 RMK AO2 SLP279 T01891067 10189 20017 58026
KSYR 231654Z 30003KT 10SM FEW250 18/M06 A3039 RMK AO2 SLP289 T01831056 VISNO NW
KSYR 231554Z VRB03KT 10SM FEW250 16/M05 A3042 RMK AO2 SLP300 T01561050 $
KSYR 231454Z COR VRB03KT 10SM FEW250 14/M04 A3044 RMK AO2 SLP306 T01441039 58011 $
KSYR 231354Z 06004KT 10SM FEW250 11/M03 A3046 RMK AO2 SLP312 T01061028 $
KSYR 231254Z 09003KT 10SM CLR 06/M02 A3047 RMK AO2 SLP317 T00561022 VISNO NW $
KSYR 231154Z 00000KT 10SM CLR 02/M02 A3047 RMK AO2 SLP317 T00171017 10028 21017 53011 $
KSYR 231054Z 06004KT 10SM CLR M02/M03 A3045 RMK AO2 SLP310 T10171033 $
KSYR 230954Z 00000KT 10SM CLR M02/M04 A3045 RMK AO2 SLP310 T10171044 $
KSYR 230854Z 08004KT 10SM CLR 00/M04 A3044 RMK AO2 SLP305 T00001044 53004 $
KSYR 230754Z 14004KT 10SM CLR 01/M05 A3043 RMK AO2 SLP303 T00061050 $
KSYR 230654Z 15003KT 10SM FEW250 01/M05 A3042 RMK AO2 SLP301 T00111050 $
KSYR 230554Z 11003KT 10SM CLR 03/M04 A3042 RMK AO2 SLP301 T00281044 10106 20022 53004 $
KSYR 230454Z 15003KT 10SM CLR 02/M04 A3042 RMK AO2 SLP299 T00221039 401561022 $
KSYR 230354Z 00000KT 10SM CLR 04/M03 A3041 RMK AO2 SLP296 T00391033 $
KSYR 230254Z 12003KT 10SM CLR 05/M01 A3041 RMK AO2 SLP297 T00501011 51012 $
KSYR 230154Z 17003KT 10SM CLR 07/M07 A3041 RMK AO2 SLP296 T00721067 $
KSYR 230054Z 00000KT 10SM CLR 08/M07 A3040 RMK AO2 SLP294 T00831067 $
KSYR 222354Z 34005KT 10SM CLR 10/M07 A3038 RMK AO2 SLP287 T01001072 10156 20100 53002 $
KSYR 222254Z 33006KT 10SM CLR 13/M07 A3037 RMK AO2 SLP283 T01281072 $
KSYR 222154Z 30011KT 10SM CLR 14/M08 A3037 RMK AO2 SLP285 T01391078 $
KSYR 222054Z 30014KT 10SM CLR 15/M07 A3037 RMK AO2 SLP284 T01501072 56010 $
KSYR 221954Z 34011G19KT 10SM FU CLR 16/M06 A3038 RMK AO2 SLP285 T01561061 $
KSYR 221854Z 32011KT 10SM CLR 15/M07 A3039 RMK AO2 SLP291 T01501067 $
KSYR 221754Z COR 32012G19KT 10SM CLR 14/M06 A3040 RMK AO2 SLP294 T01441061 10156 20028 58014 $
KSYR 221654Z VRB06KT 10SM CLR 14/M04 A3042 RMK AO2 SLP299 T01441039 $
KSYR 221554Z 27008KT 230V300 10SM CLR 13/M04 A3044 RMK AO2 SLP306 T01331039 $
KSYR 221454Z VRB05KT 10SM CLR 11/M03 A3044 RMK AO2 SLP308 T01061033 50006 $
KSYR 221354Z 27006KT 10SM CLR 09/M03 A3044 RMK AO2 SLP309 T00891033 $
KSYR 221254Z 26007KT 10SM CLR 07/M03 A3044 RMK AO2 SLP306 T00671028 $
KSYR 221154Z 00000KT 10SM CLR 03/M02 A3043 RMK AO2 SLP303 T00281017 10028 21022 53014 $
KSYR 221054Z 00000KT 10SM CLR M01/M04 A3041 RMK AO2 SLP296 T10111039 $
KSYR 220954Z 00000KT 10SM CLR M02/M04 A3039 RMK AO2 SLP291 T10171044 $
KSYR 220854Z 00000KT 10SM FEW250 M02/M03 A3039 RMK AO2 SLP289 T10221028 CHINO NW $
KSYR 220754Z 00000KT 10SM CLR M01/M04 A3039 RMK AO2 SLP290 T10061039 $
KSYR 220654Z 00000KT 10SM CLR 00/M04 A3038 RMK AO2 SLP289 T00001039 $
KSYR 220554Z 00000KT 10SM FEW250 01/M04 A3039 RMK AO2 SLP289 T00061039 10083 20006 53002 $
KSYR 220454Z 00000KT 10SM FEW250 02/M04 A3038 RMK AO2 SLP288 T00171039 401221017 $
KSYR 220354Z 00000KT 10SM FEW250 03/M04 A3038 RMK AO2 SLP286 T00281044 $
KSYR 220254Z 00000KT 10SM SCT250 03/M03 A3038 RMK AO2 SLP287 T00331028 51005 $
KSYR 220154Z 00000KT 10SM FEW070 FEW250 04/M05 A3037 RMK AO2 SLP286 T00441050 $
KSYR 220054Z 00000KT 10SM FEW060 FEW250 07/M06 A3037 RMK AO2 SLP283 T00671056 $
KSYR 212354Z 31006KT 10SM FEW060 FEW250 08/M07 A3036 RMK AO2 SLP282 T00831067 10122 20083 53004 $
KSYR 212254Z 31010KT 10SM FEW080 FEW180 SCT250 10/M07 A3035 RMK AO2 SLP279 T01001072 $
KSYR 212154Z 30010KT 10SM FEW080 FEW180 SCT250 11/M09 A3035 RMK AO2 SLP278 T01111089 $
KSYR 212054Z 28014G19KT 10SM FEW250 12/M08 A3035 RMK AO2 SLP278 T01171078 56012 $
KSYR 211954Z 30011G20KT 10SM FEW060 12/M08 A3036 RMK AO2 SLP281 T01171083 $
KSYR 211854Z 31011G19KT 10SM FEW060 12/M06 A3037 RMK AO2 SLP285 T01221061 $
KSYR 211754Z 29015KT 10SM FEW060 12/M07 A3039 RMK AO2 SLP290 T01171067 10122 20017 56019 $
KSYR 211654Z 33014G20KT 10SM FEW050 11/M05 A3040 RMK AO2 SLP295 T01111050 $
KSYR 211554Z 30008G18KT 10SM FEW050 10/M04 A3043 RMK AO2 SLP303 T01001044 $
KSYR 211454Z 29007KT 260V330 10SM FEW280 08/M02 A3044 RMK AO2 SLP308 T00781022 50005 $
KSYR 211354Z 25007KT 10SM FEW300 06/M02 A3045 RMK AO2 SLP312 T00561022 $
KSYR 211254Z 26009KT 10SM FEW300 03/M02 A3044 RMK AO2 SLP310 T00331022 $
KSYR 211154Z 25011KT 10SM FEW300 02/M02 A3043 RMK AO2 SLP304 T00171022 10017 21017 53006 $
KSYR 211054Z 24007KT 10SM FEW150 SCT250 00/M03 A3041 RMK AO2 SLP300 T00001033 $
KSYR 210954Z 24006KT 10SM FEW250 M01/M04 A3041 RMK AO2 SLP298 T10111039 $
KSYR 210854Z 24007KT 10SM CLR M02/M04 A3041 RMK AO2 SLP298 T10171039 53008 $
KSYR 210754Z 24005KT 10SM CLR M01/M04 A3040 RMK AO2 SLP294 T10111044 $
KSYR 210654Z 24006KT 10SM FEW250 M01/M04 A3039 RMK AO2 SLP292 T10111044 $
KSYR 210554Z 24005KT 10SM FEW250 M01/M04 A3038 RMK AO2 SLP289 T10111044 10039 21011 50001 $
KSYR 210454Z 24005KT 10SM FEW050 SCT250 00/M04 A3038 RMK AO2 SLP290 T00001039 400611011 $
KSYR 210354Z 00000KT 10SM FEW050 FEW250 01/M04 A3038 RMK AO2 SLP290 T00061044 $
KSYR 210254Z 27008KT 10SM FEW050 01/M04 A3038 RMK AO2 SLP289 T00111039 51007 $
KSYR 210154Z 26007KT 10SM FEW100 01/M04 A3038 RMK AO2 SLP289 T00111044 $
KSYR 210054Z 28009KT 10SM FEW100 03/M05 A3038 RMK AO2 SLP287 T00331050 $
KSYR 202354Z 29011KT 10SM FEW100 04/M04 A3036 RMK AO2 SLP281 T00391044 10061 20028 51008 $
KSYR 202254Z 28011KT 10SM FEW050 FEW100 06/M04 A3035 RMK AO2 SLP278 T00561039 $
KSYR 202154Z 28012G20KT 10SM FEW044 SCT100 06/M03 A3034 RMK AO2 SLP276 T00611033
KSYR 202054Z 29011KT 10SM FEW042 06/M03 A3033 RMK AO2 SLP273 T00561028 51005
KSYR 201954Z 29013G18KT 10SM BKN038 06/M03 A3033 RMK AO2 SLP271 T00561028
KSYR 201854Z 32009KT 10SM OVC032 03/M03 A3033 RMK AO2 SLP271 T00331033
KSYR 201754Z 29011KT 10SM OVC034 03/M03 A3032 RMK AO2 SLP268 T00281033 10028 21006 51008
KSYR 201654Z 30012G20KT 10SM OVC032 02/M03 A3031 RMK AO2 SLP266 T00221028
KSYR 201554Z 32011KT 10SM OVC030 01/M03 A3031 RMK AO2 SLP265 T00111028
KSYR 201454Z 32011G19KT 10SM OVC034 01/M04 A3029 RMK AO2 SLP260 T00061039 51022
KSYR 201354Z 29011KT 10SM BKN034 OVC043 00/M04 A3027 RMK AO2 SLP254 T00001039
KSYR 201254Z 30012KT 10SM OVC038 M01/M04 A3025 RMK AO2 SLP247 T10061044